KLPR

Lorain County Regional Airport

Lorain/Elyria, Ohio, USA
METAR KLPR 230253Z AUTO 02008G16KT 6SM HZ BKN007 OVC016 17/13 A3003 RMK AO2 CIG 006V012 SLP166 T01670133 53026
Observed Flight Rules
May-23 @ 02:53 UTC (11 minutes ago) Instrument Flight Rules
Wind Visibility Clouds Conditions
20° at 8 knots
 Gusting to 16 knots
6 miles
  • Broken at 700' AGL
  • Overcast at 1,600' AGL
  • Haze
Temperatures Readings
Current 17°C / 63°F
Dewpoint 13°C / 55°F
Humidity 77%
Altimeter 30.03" Hg
Pressure 1016.6 hPa
Elevation 241
METAR KLPR 230253Z AUTO 02008G16KT 6SM HZ BKN007 OVC016 17/13 A3003 RMK AO2 CIG 006V012 SLP166 T01670133 53026
Observed Flight Rules
May-23 @ 02:53 UTC
(11 minutes ago)
IFR
Wind Visibility
20° at 8 knots
 Gusting to 16 knots
6 miles
Clouds
  • Broken at 700' AGL
  • Overcast at 1,600' AGL
Conditions
  • Haze
Temperature Dewpoint
17°C / 63°F 13°C / 55°F
Humidity Altimeter Pressure
77% 30.03" Hg 1016.6 hPa